Time;durP1;ratioP1;P1;durP2;ratioP2;P2;SDS_P1;SDS_P2;PMS_P1;PMS_P2;Temp;Humidity;BMP_temperature;BMP_pressure;BME280_temperature;BME280_humidity;BME280_pressure;Samples;Min_cycle;Max_cycle;Signal;HPM_P1;HPM_P2
2023/11/02 00:01:47;;;;;;;3.33;1.00;;;;;;;;;;5028917;28;21104;-64
2023/11/02 00:04:16;;;;;;;2.00;0.97;;;;;;;;;;5019824;28;20228;-64
2023/11/02 00:06:46;;;;;;;1.63;0.90;;;;;;;;;;5025466;28;20200;-64
2023/11/02 00:09:34;;;;;;;2.40;1.10;;;;;;;;;;5031732;28;20231;-64
2023/11/02 00:12:03;;;;;;;3.90;1.20;;;;;;;;;;5029900;28;20204;-64
2023/11/02 00:14:35;;;;;;;2.47;1.10;;;;;;;;;;5017239;28;20228;-64
2023/11/02 00:17:07;;;;;;;4.53;0.93;;;;;;;;;;5017400;28;20220;-64
2023/11/02 00:19:37;;;;;;;2.63;1.10;;;;;;;;;;5017304;28;20220;-64
2023/11/02 00:22:07;;;;;;;5.07;1.13;;;;;;;;;;5020637;28;20208;-64
2023/11/02 00:24:36;;;;;;;5.20;1.00;;;;;;;;;;5020888;28;20228;-64
2023/11/02 00:27:04;;;;;;;1.40;0.90;;;;;;;;;;5021064;28;20208;-64
2023/11/02 00:29:32;;;;;;;2.57;0.77;;;;;;;;;;5039023;28;20203;-64
2023/11/02 00:32:00;;;;;;;1.33;0.90;;;;;;;;;;5020477;28;20212;-64
2023/11/02 00:34:29;;;;;;;4.73;1.00;;;;;;;;;;5036807;28;20227;-64
2023/11/02 00:36:59;;;;;;;3.97;0.90;;;;;;;;;;5039866;28;20208;-64
2023/11/02 00:39:27;;;;;;;5.80;0.97;;;;;;;;;;5039026;28;20222;-64
2023/11/02 00:41:56;;;;;;;2.97;1.10;;;;;;;;;;5038601;28;20203;-64
2023/11/02 00:44:24;;;;;;;1.37;0.73;;;;;;;;;;5039189;28;20223;-64
2023/11/02 00:46:52;;;;;;;2.97;1.00;;;;;;;;;;5039727;28;20199;-64
2023/11/02 00:49:21;;;;;;;6.17;0.90;;;;;;;;;;5039747;28;20203;-64
2023/11/02 00:51:54;;;;;;;2.27;1.00;;;;;;;;;;5038356;28;20207;-64
2023/11/02 00:54:45;;;;;;;2.63;1.00;;;;;;;;;;5040085;28;20224;-64
2023/11/02 00:57:14;;;;;;;5.13;1.40;;;;;;;;;;5038180;28;20210;-64
2023/11/02 00:59:44;;;;;;;1.20;0.90;;;;;;;;;;5034645;28;20227;-64
2023/11/02 01:02:14;;;;;;;3.33;0.90;;;;;;;;;;5038685;28;20647;-64
2023/11/02 01:04:49;;;;;;;4.43;1.13;;;;;;;;;;5019750;28;20231;-64
2023/11/02 01:07:17;;;;;;;1.27;0.80;;;;;;;;;;5036799;28;20207;-64
2023/11/02 01:09:55;;;;;;;3.07;1.00;;;;;;;;;;5038972;28;20657;-64
2023/11/02 01:12:24;;;;;;;6.07;1.30;;;;;;;;;;5039204;28;20207;-64
2023/11/02 01:14:52;;;;;;;1.40;0.90;;;;;;;;;;5039150;28;20260;-64
2023/11/02 01:17:28;;;;;;;5.33;1.20;;;;;;;;;;5024275;28;20663;-64
2023/11/02 01:19:57;;;;;;;3.03;1.03;;;;;;;;;;5020061;28;20235;-64
2023/11/02 01:22:58;;;;;;;3.33;0.83;;;;;;;;;;5035659;28;20205;-64
2023/11/02 01:25:29;;;;;;;3.60;1.10;;;;;;;;;;5038896;28;20203;-64
2023/11/02 01:28:00;;;;;;;2.23;1.40;;;;;;;;;;5039730;28;20258;-64
2023/11/02 01:30:43;;;;;;;6.97;1.60;;;;;;;;;;5036833;28;20647;-64
2023/11/02 01:33:25;;;;;;;1.77;1.10;;;;;;;;;;5002600;28;20220;-64
2023/11/02 01:35:54;;;;;;;4.53;1.30;;;;;;;;;;5025424;28;20207;-64
2023/11/02 01:38:23;;;;;;;5.00;1.00;;;;;;;;;;5038753;28;20210;-64
2023/11/02 01:40:53;;;;;;;2.83;1.10;;;;;;;;;;5037538;28;20231;-64
2023/11/02 01:43:24;;;;;;;3.57;1.37;;;;;;;;;;5039415;28;20243;-64
2023/11/02 01:45:54;;;;;;;4.77;1.20;;;;;;;;;;5038525;28;20215;-64
2023/11/02 01:48:23;;;;;;;2.97;1.30;;;;;;;;;;5038516;28;20207;-64
2023/11/02 01:50:54;;;;;;;4.40;1.20;;;;;;;;;;5038310;28;20534;-64
2023/11/02 01:53:29;;;;;;;1.80;1.00;;;;;;;;;;5031782;28;20220;-64
2023/11/02 01:56:08;;;;;;;4.00;1.67;;;;;;;;;;5027814;28;20673;-64
2023/11/02 01:58:43;;;;;;;3.57;1.37;;;;;;;;;;5038778;28;20297;-64
2023/11/02 02:01:14;;;;;;;3.63;1.63;;;;;;;;;;5034857;28;20226;-64
2023/11/02 02:03:47;;;;;;;2.30;1.10;;;;;;;;;;5028248;28;20264;-64
2023/11/02 02:06:18;;;;;;;1.23;1.00;;;;;;;;;;5018804;28;20254;-64
2023/11/02 02:08:52;;;;;;;1.03;0.93;;;;;;;;;;5023313;28;20201;-65
2023/11/02 02:11:35;;;;;;;4.97;1.30;;;;;;;;;;5019107;28;20222;-64
2023/11/02 02:14:09;;;;;;;4.23;1.23;;;;;;;;;;5018849;28;20228;-64
2023/11/02 02:16:42;;;;;;;6.40;1.70;;;;;;;;;;5019090;28;20208;-63
2023/11/02 02:19:18;;;;;;;2.47;1.13;;;;;;;;;;5019009;28;20212;-63
2023/11/02 02:21:51;;;;;;;5.57;1.60;;;;;;;;;;5029020;28;20223;-64
2023/11/02 02:24:23;;;;;;;7.40;1.27;;;;;;;;;;5018902;28;20255;-64
2023/11/02 02:27:06;;;;;;;4.07;1.07;;;;;;;;;;5019073;28;20215;-64
2023/11/02 02:29:52;;;;;;;3.67;1.33;;;;;;;;;;5035048;28;20203;-64
2023/11/02 02:32:38;;;;;;;2.30;1.03;;;;;;;;;;5036836;28;20211;-64
2023/11/02 02:35:10;;;;;;;5.27;1.40;;;;;;;;;;4997612;28;20254;-64
2023/11/02 02:37:41;;;;;;;3.63;1.67;;;;;;;;;;5022358;28;20199;-64
2023/11/02 02:40:13;;;;;;;3.53;1.23;;;;;;;;;;5035790;28;20207;-63
2023/11/02 02:42:42;;;;;;;4.97;0.90;;;;;;;;;;5026239;28;20216;-63
2023/11/02 02:45:12;;;;;;;2.43;1.00;;;;;;;;;;5018228;28;20265;-63
2023/11/02 02:47:41;;;;;;;4.63;1.13;;;;;;;;;;5037285;28;20649;-64
2023/11/02 02:50:12;;;;;;;7.20;1.37;;;;;;;;;;5037192;28;20207;-64
2023/11/02 02:52:41;;;;;;;3.53;1.10;;;;;;;;;;5037219;28;20679;-64
2023/11/02 02:55:10;;;;;;;1.47;1.00;;;;;;;;;;5034458;28;20227;-64
2023/11/02 02:57:43;;;;;;;3.00;1.13;;;;;;;;;;5035952;28;20210;-64
2023/11/02 03:00:12;;;;;;;6.77;1.10;;;;;;;;;;5029352;28;20208;-64
2023/11/02 03:02:42;;;;;;;5.23;1.40;;;;;;;;;;5033509;28;20216;-64
2023/11/02 03:05:13;;;;;;;1.77;0.83;;;;;;;;;;5019019;28;20572;-64
2023/11/02 03:07:42;;;;;;;2.77;0.80;;;;;;;;;;5036817;28;20206;-64
2023/11/02 03:10:10;;;;;;;4.17;1.10;;;;;;;;;;5037133;28;20203;-64
2023/11/02 03:12:40;;;;;;;2.83;0.90;;;;;;;;;;5036494;28;20257;-63
2023/11/02 03:15:08;;;;;;;2.70;0.73;;;;;;;;;;5036840;28;20246;-64
2023/11/02 03:17:41;;;;;;;3.20;0.93;;;;;;;;;;5036543;28;20199;-63
2023/11/02 03:20:11;;;;;;;1.37;0.77;;;;;;;;;;5037074;28;20215;-64
2023/11/02 03:22:41;;;;;;;2.10;0.80;;;;;;;;;;5037349;28;20644;-64
2023/11/02 03:25:14;;;;;;;4.40;0.87;;;;;;;;;;5036181;28;20219;-64
2023/11/02 03:27:47;;;;;;;3.27;0.70;;;;;;;;;;5035604;28;20203;-64
2023/11/02 03:30:18;;;;;;;2.50;0.80;;;;;;;;;;5029740;28;20254;-63
2023/11/02 03:32:53;;;;;;;4.97;1.20;;;;;;;;;;5037717;28;20207;-64
2023/11/02 03:35:29;;;;;;;2.50;0.80;;;;;;;;;;5036649;28;20223;-64
2023/11/02 03:38:02;;;;;;;2.80;0.70;;;;;;;;;;5030212;28;20199;-64
2023/11/02 03:40:36;;;;;;;1.80;1.20;;;;;;;;;;5026316;28;20612;-64
2023/11/02 03:43:06;;;;;;;5.67;0.93;;;;;;;;;;5037598;28;20208;-64
2023/11/02 03:45:43;;;;;;;2.97;0.90;;;;;;;;;;5036289;28;20286;-64
2023/11/02 03:48:17;;;;;;;0.33;0.33;;;;;;;;;;5037642;28;20207;-63
2023/11/02 03:50:52;;;;;;;0.80;0.47;;;;;;;;;;5036770;28;20241;-64
2023/11/02 03:53:28;;;;;;;1.30;0.80;;;;;;;;;;5036633;28;20284;-64
2023/11/02 03:56:01;;;;;;;1.97;0.70;;;;;;;;;;5036552;28;20226;-64
2023/11/02 03:58:34;;;;;;;3.87;0.70;;;;;;;;;;5039244;28;21041;-64
2023/11/02 04:01:08;;;;;;;2.30;0.80;;;;;;;;;;5035715;28;20234;-63
2023/11/02 04:03:37;;;;;;;4.07;1.10;;;;;;;;;;5028605;28;20224;-64
2023/11/02 04:06:10;;;;;;;3.60;0.80;;;;;;;;;;5037021;28;20212;-64
2023/11/02 04:08:40;;;;;;;1.00;0.97;;;;;;;;;;5032286;28;20232;-64
2023/11/02 04:11:10;;;;;;;2.27;0.90;;;;;;;;;;5036702;28;20219;-64
2023/11/02 04:13:40;;;;;;;2.80;0.90;;;;;;;;;;5035156;28;20224;-64
2023/11/02 04:16:08;;;;;;;4.93;0.90;;;;;;;;;;5024707;28;20216;-64
2023/11/02 04:18:38;;;;;;;2.53;0.90;;;;;;;;;;5021748;28;20212;-64
2023/11/02 04:21:08;;;;;;;1.17;0.70;;;;;;;;;;5023165;28;20208;-64
2023/11/02 04:23:36;;;;;;;3.33;0.80;;;;;;;;;;5021192;28;20243;-64
2023/11/02 04:26:05;;;;;;;1.77;0.70;;;;;;;;;;5021189;28;20215;-63
2023/11/02 04:28:34;;;;;;;0.80;0.80;;;;;;;;;;5034245;28;20207;-64
2023/11/02 04:31:02;;;;;;;3.50;0.70;;;;;;;;;;5031543;28;20207;-64
2023/11/02 04:33:30;;;;;;;2.17;0.70;;;;;;;;;;5040788;28;20235;-64
2023/11/02 04:35:59;;;;;;;2.53;0.60;;;;;;;;;;5032678;28;20208;-64
2023/11/02 04:38:29;;;;;;;1.27;0.73;;;;;;;;;;5031849;28;20203;-64
2023/11/02 04:40:58;;;;;;;4.73;1.17;;;;;;;;;;5026297;28;20291;-64
2023/11/02 04:43:26;;;;;;;1.40;0.57;;;;;;;;;;5038319;28;20235;-64
2023/11/02 04:45:54;;;;;;;4.67;1.20;;;;;;;;;;5039834;28;20620;-64
2023/11/02 04:48:23;;;;;;;1.47;0.70;;;;;;;;;;5040531;28;20211;-64
2023/11/02 04:50:53;;;;;;;1.73;0.60;;;;;;;;;;5033352;28;20633;-64
2023/11/02 04:53:22;;;;;;;0.87;0.80;;;;;;;;;;5020278;28;20224;-64
2023/11/02 04:55:52;;;;;;;1.23;0.70;;;;;;;;;;5026782;28;20200;-64
2023/11/02 04:58:20;;;;;;;4.47;0.70;;;;;;;;;;5035505;28;20634;-64
2023/11/02 05:00:50;;;;;;;1.30;0.77;;;;;;;;;;5029859;28;20208;-64
2023/11/02 05:03:18;;;;;;;3.27;0.80;;;;;;;;;;5028307;28;20232;-64
2023/11/02 05:05:46;;;;;;;1.63;1.03;;;;;;;;;;5025713;28;20207;-64
2023/11/02 05:08:14;;;;;;;3.03;0.90;;;;;;;;;;5038443;28;20212;-64
2023/11/02 05:10:42;;;;;;;2.00;0.60;;;;;;;;;;5023043;28;20238;-64
2023/11/02 05:13:12;;;;;;;1.30;0.60;;;;;;;;;;5038639;28;20224;-64
2023/11/02 05:15:40;;;;;;;0.83;0.60;;;;;;;;;;5039054;28;20563;-64
2023/11/02 05:18:23;;;;;;;1.90;0.60;;;;;;;;;;5039210;28;20224;-64
2023/11/02 05:20:57;;;;;;;2.47;0.67;;;;;;;;;;5038864;28;20733;-64
2023/11/02 05:23:25;;;;;;;1.90;0.70;;;;;;;;;;5039498;28;20716;-64
2023/11/02 05:25:53;;;;;;;1.73;0.70;;;;;;;;;;5038417;28;20250;-64
2023/11/02 05:28:26;;;;;;;1.17;0.90;;;;;;;;;;5033780;28;20238;-64
2023/11/02 05:30:55;;;;;;;0.40;0.40;;;;;;;;;;5029876;28;20199;-64
2023/11/02 05:33:23;;;;;;;5.03;1.10;;;;;;;;;;5025413;28;20583;-65
2023/11/02 05:35:51;;;;;;;4.30;0.80;;;;;;;;;;5021571;28;20291;-63
2023/11/02 05:38:19;;;;;;;2.30;0.80;;;;;;;;;;5019868;28;20212;-64
2023/11/02 05:40:47;;;;;;;2.70;0.90;;;;;;;;;;5021108;28;20287;-63
2023/11/02 05:43:15;;;;;;;1.23;0.77;;;;;;;;;;5019429;28;20283;-64
2023/11/02 05:45:45;;;;;;;3.33;0.70;;;;;;;;;;5032072;28;20360;-64
2023/11/02 05:48:13;;;;;;;1.53;0.67;;;;;;;;;;5019741;28;20227;-63
2023/11/02 05:50:41;;;;;;;1.93;0.73;;;;;;;;;;5019279;28;20571;-63
2023/11/02 05:53:09;;;;;;;2.60;0.87;;;;;;;;;;5019555;28;20211;-64
2023/11/02 05:55:37;;;;;;;3.27;0.80;;;;;;;;;;5019573;28;20208;-64
2023/11/02 05:58:05;;;;;;;2.33;0.60;;;;;;;;;;5018891;28;20236;-64
2023/11/02 06:00:33;;;;;;;1.40;0.70;;;;;;;;;;5019972;28;20678;-64
2023/11/02 06:03:15;;;;;;;2.17;1.10;;;;;;;;;;5026302;28;20290;-64
2023/11/02 06:05:43;;;;;;;1.93;1.07;;;;;;;;;;5036433;28;20208;-64
2023/11/02 06:08:11;;;;;;;2.70;0.90;;;;;;;;;;5038876;28;20239;-64
2023/11/02 06:10:39;;;;;;;3.80;1.27;;;;;;;;;;5038778;28;20262;-64
2023/11/02 06:13:07;;;;;;;2.90;1.13;;;;;;;;;;5027000;28;20196;-64
2023/11/02 06:15:35;;;;;;;0.80;0.80;;;;;;;;;;5019343;28;20208;-64
2023/11/02 06:18:04;;;;;;;2.17;0.80;;;;;;;;;;5033786;28;20576;-64
2023/11/02 06:20:34;;;;;;;4.43;0.90;;;;;;;;;;5038100;28;20721;-64
2023/11/02 06:23:03;;;;;;;1.73;0.80;;;;;;;;;;5038500;28;20238;-64
2023/11/02 06:25:31;;;;;;;4.10;1.00;;;;;;;;;;5038755;28;20211;-64
2023/11/02 06:28:09;;;;;;;1.80;0.97;;;;;;;;;;5037789;28;20207;-64
2023/11/02 06:30:37;;;;;;;1.90;1.07;;;;;;;;;;5038294;28;20211;-64
2023/11/02 06:36:50;;;;;;;6.17;2.57;;;;;;;;;;5032287;28;20213;-64
2023/11/02 06:39:32;;;;;;;6.63;3.20;;;;;;;;;;5011162;28;20222;-64
2023/11/02 06:42:00;;;;;;;5.37;2.13;;;;;;;;;;5033912;28;20226;-64
2023/11/02 06:44:39;;;;;;;4.60;2.10;;;;;;;;;;5029353;28;20586;-65
2023/11/02 06:47:07;;;;;;;2.40;1.50;;;;;;;;;;5036606;28;20290;-65
2023/11/02 06:49:35;;;;;;;3.93;1.40;;;;;;;;;;5037161;28;20200;-64
2023/11/02 06:52:05;;;;;;;3.67;1.33;;;;;;;;;;5037031;28;20210;-64
2023/11/02 06:54:32;;;;;;;1.40;0.80;;;;;;;;;;5037234;28;20227;-64
2023/11/02 06:57:02;;;;;;;1.27;0.90;;;;;;;;;;5037297;28;20206;-64
2023/11/02 06:59:55;;;;;;;3.13;1.23;;;;;;;;;;5020112;28;20286;-64
2023/11/02 07:02:26;;;;;;;2.77;0.87;;;;;;;;;;5034830;28;20207;-64
2023/11/02 07:04:58;;;;;;;1.57;0.90;;;;;;;;;;5034344;28;20618;-64
2023/11/02 07:07:27;;;;;;;1.70;1.00;;;;;;;;;;5038015;28;20211;-64
2023/11/02 07:13:18;;;;;;;1.30;0.57;;;;;;;;;;5035047;28;20194;-66
2023/11/02 07:15:55;;;;;;;0.57;0.40;;;;;;;;;;5037882;28;20247;-64
2023/11/02 07:18:51;;;;;;;2.00;0.43;;;;;;;;;;5029500;28;20235;-65
2023/11/02 07:21:19;;;;;;;0.90;0.50;;;;;;;;;;5027809;28;20211;-65
2023/11/02 07:23:49;;;;;;;0.40;0.40;;;;;;;;;;5017992;28;20232;-65
2023/11/02 07:26:17;;;;;;;0.40;0.30;;;;;;;;;;5024509;28;20207;-66
2023/11/02 07:28:45;;;;;;;0.70;0.50;;;;;;;;;;5035897;28;20215;-64
2023/11/02 07:31:27;;;;;;;0.60;0.40;;;;;;;;;;5037111;28;20214;-64
2023/11/02 07:33:55;;;;;;;0.67;0.63;;;;;;;;;;5033485;28;20223;-65
2023/11/02 07:36:23;;;;;;;0.40;0.40;;;;;;;;;;5017834;28;20239;-65
2023/11/02 07:38:54;;;;;;;0.60;0.60;;;;;;;;;;5022620;28;20735;-65
2023/11/02 07:41:24;;;;;;;1.00;0.50;;;;;;;;;;5026745;28;20199;-65
2023/11/02 07:43:52;;;;;;;1.10;0.60;;;;;;;;;;5029035;28;20227;-65
2023/11/02 07:46:20;;;;;;;0.87;0.80;;;;;;;;;;5027433;28;20207;-64
2023/11/02 07:48:49;;;;;;;1.70;0.70;;;;;;;;;;5027620;28;20214;-65
2023/11/02 07:51:17;;;;;;;1.47;0.80;;;;;;;;;;5025599;28;20196;-66
2023/11/02 07:53:45;;;;;;;2.63;0.57;;;;;;;;;;5026122;28;20231;-64
2023/11/02 07:56:15;;;;;;;2.73;0.80;;;;;;;;;;5028081;28;20200;-64
2023/11/02 07:58:43;;;;;;;1.60;1.10;;;;;;;;;;5028487;28;20243;-63
2023/11/02 08:01:11;;;;;;;3.63;0.70;;;;;;;;;;5033551;28;20199;-63
2023/11/02 08:03:39;;;;;;;1.17;0.60;;;;;;;;;;5028559;28;20274;-65
2023/11/02 08:06:09;;;;;;;3.23;0.80;;;;;;;;;;5027342;28;20214;-66
2023/11/02 08:08:37;;;;;;;0.57;0.53;;;;;;;;;;5017389;28;20208;-67
2023/11/02 08:11:05;;;;;;;0.70;0.70;;;;;;;;;;5017434;28;20244;-66
2023/11/02 08:13:35;;;;;;;2.30;1.70;;;;;;;;;;5017314;28;20256;-65
2023/11/02 08:16:03;;;;;;;2.33;0.50;;;;;;;;;;5027843;28;20196;-66
2023/11/02 08:18:32;;;;;;;1.30;0.50;;;;;;;;;;5028550;28;20204;-68
2023/11/02 08:21:00;;;;;;;1.40;0.70;;;;;;;;;;5024835;28;20230;-66
2023/11/02 08:23:28;;;;;;;0.40;0.40;;;;;;;;;;5026096;28;20232;-65
2023/11/02 08:25:56;;;;;;;7.10;0.77;;;;;;;;;;5029804;28;20203;-66
2023/11/02 08:28:24;;;;;;;0.40;0.40;;;;;;;;;;5027081;28;20203;-66
2023/11/02 08:30:56;;;;;;;1.97;0.40;;;;;;;;;;5028455;28;20257;-66
2023/11/02 08:33:24;;;;;;;0.57;0.50;;;;;;;;;;5026059;28;20226;-65
2023/11/02 08:35:52;;;;;;;1.40;0.60;;;;;;;;;;5035326;28;20548;-66
2023/11/02 08:38:20;;;;;;;2.17;0.70;;;;;;;;;;5026158;28;20200;-65
2023/11/02 08:40:49;;;;;;;1.33;0.47;;;;;;;;;;5034777;28;20204;-65
2023/11/02 08:43:17;;;;;;;0.50;0.40;;;;;;;;;;5038053;28;21600;-66
2023/11/02 08:45:46;;;;;;;0.80;0.37;;;;;;;;;;5039250;28;20204;-65
2023/11/02 08:48:16;;;;;;;3.47;0.47;;;;;;;;;;5044310;28;20211;-65
2023/11/02 08:50:44;;;;;;;4.00;0.50;;;;;;;;;;5040166;28;20211;-66
2023/11/02 08:53:12;;;;;;;0.93;0.60;;;;;;;;;;5040252;28;20651;-65
2023/11/02 08:55:40;;;;;;;0.57;0.40;;;;;;;;;;5040450;28;20207;-65
2023/11/02 08:58:08;;;;;;;1.93;0.60;;;;;;;;;;5039826;28;20262;-65
2023/11/02 09:00:36;;;;;;;0.60;0.60;;;;;;;;;;5040108;28;20295;-65
2023/11/02 09:03:05;;;;;;;0.73;0.63;;;;;;;;;;5027483;28;20553;-65
2023/11/02 09:05:34;;;;;;;1.43;0.60;;;;;;;;;;5020129;28;20227;-66
2023/11/02 09:08:03;;;;;;;2.30;0.70;;;;;;;;;;5029473;28;20207;-64
2023/11/02 09:10:31;;;;;;;1.37;1.00;;;;;;;;;;5026896;28;20196;-65
2023/11/02 09:12:59;;;;;;;1.37;0.83;;;;;;;;;;5039517;28;20214;-66
2023/11/02 09:15:27;;;;;;;2.77;0.80;;;;;;;;;;5038287;28;20192;-65
2023/11/02 09:17:55;;;;;;;1.27;0.60;;;;;;;;;;5022990;28;20232;-67
2023/11/02 09:20:24;;;;;;;0.67;0.67;;;;;;;;;;5020018;28;20212;-64
2023/11/02 09:22:53;;;;;;;0.60;0.60;;;;;;;;;;5019852;28;20215;-66
2023/11/02 09:25:22;;;;;;;0.93;0.50;;;;;;;;;;5026760;28;20683;-65
2023/11/02 09:27:51;;;;;;;1.70;0.60;;;;;;;;;;5025321;28;20277;-65
2023/11/02 09:30:19;;;;;;;0.40;0.40;;;;;;;;;;5039588;28;20583;-65
2023/11/02 09:32:48;;;;;;;0.93;0.40;;;;;;;;;;5039798;28;20238;-65
2023/11/02 09:35:16;;;;;;;0.40;0.40;;;;;;;;;;5028787;28;20226;-66
2023/11/02 09:37:44;;;;;;;0.73;0.50;;;;;;;;;;5030239;28;20215;-65
2023/11/02 09:40:17;;;;;;;1.03;0.73;;;;;;;;;;5029284;28;20200;-62
2023/11/02 09:42:47;;;;;;;0.70;0.70;;;;;;;;;;5030360;28;20203;-65
2023/11/02 09:45:22;;;;;;;1.10;0.80;;;;;;;;;;5028908;28;20744;-66
2023/11/02 09:47:50;;;;;;;1.00;0.70;;;;;;;;;;5026942;28;20199;-65
2023/11/02 09:50:18;;;;;;;0.77;0.57;;;;;;;;;;5019536;28;20216;-66
2023/11/02 09:52:47;;;;;;;2.00;1.07;;;;;;;;;;5022732;28;20656;-65
2023/11/02 09:55:17;;;;;;;0.33;0.33;;;;;;;;;;5025914;28;20311;-66
2023/11/02 09:57:48;;;;;;;2.50;1.20;;;;;;;;;;5030351;28;20291;-65
2023/11/02 10:00:17;;;;;;;0.70;0.70;;;;;;;;;;5036132;28;20210;-66
2023/11/02 10:02:48;;;;;;;0.50;0.50;;;;;;;;;;5032888;28;20311;-65
2023/11/02 10:05:17;;;;;;;1.27;0.50;;;;;;;;;;5036106;28;20237;-65
2023/11/02 10:07:49;;;;;;;0.83;0.53;;;;;;;;;;5028731;28;20218;-65
2023/11/02 10:10:19;;;;;;;0.50;0.50;;;;;;;;;;5028505;28;20667;-66
2023/11/02 10:12:47;;;;;;;3.77;0.90;;;;;;;;;;5018947;28;20243;-66
2023/11/02 10:15:16;;;;;;;0.70;0.70;;;;;;;;;;5019140;28;20282;-64
2023/11/02 10:17:45;;;;;;;0.77;0.70;;;;;;;;;;5030067;28;20212;-66
2023/11/02 10:20:14;;;;;;;1.33;0.77;;;;;;;;;;5018890;28;20228;-66
2023/11/02 10:22:44;;;;;;;0.57;0.50;;;;;;;;;;5029781;28;20208;-64
2023/11/02 10:25:13;;;;;;;1.13;0.80;;;;;;;;;;5031485;28;20232;-64
2023/11/02 10:27:43;;;;;;;2.40;0.70;;;;;;;;;;5038076;28;20207;-65
2023/11/02 10:30:12;;;;;;;4.33;1.00;;;;;;;;;;5022062;28;20208;-65
2023/11/02 10:32:41;;;;;;;2.70;0.80;;;;;;;;;;5020142;28;20211;-65
2023/11/02 10:35:09;;;;;;;1.67;1.40;;;;;;;;;;5021427;28;20232;-65
2023/11/02 10:37:38;;;;;;;0.90;0.90;;;;;;;;;;5018367;28;20245;-65
2023/11/02 10:40:06;;;;;;;1.23;0.60;;;;;;;;;;5019930;28;20216;-65
2023/11/02 10:42:36;;;;;;;1.50;0.90;;;;;;;;;;5027440;28;20235;-65
2023/11/02 10:45:07;;;;;;;1.00;0.90;;;;;;;;;;5036377;28;20228;-65
2023/11/02 10:47:38;;;;;;;1.83;1.00;;;;;;;;;;5037897;28;20294;-64
2023/11/02 10:50:08;;;;;;;2.07;1.10;;;;;;;;;;5037867;28;20243;-64
2023/11/02 10:52:41;;;;;;;1.33;1.23;;;;;;;;;;5037909;28;20222;-64
2023/11/02 10:55:11;;;;;;;1.73;1.00;;;;;;;;;;5037719;28;20223;-65
2023/11/02 10:57:40;;;;;;;2.37;1.10;;;;;;;;;;5035507;28;20282;-64
2023/11/02 11:00:09;;;;;;;3.57;1.20;;;;;;;;;;5037564;28;20253;-64
2023/11/02 11:02:45;;;;;;;1.90;1.07;;;;;;;;;;5035088;28;20929;-65
2023/11/02 11:05:15;;;;;;;4.13;2.37;;;;;;;;;;5033723;28;20588;-66
2023/11/02 11:07:44;;;;;;;1.10;1.00;;;;;;;;;;5035790;28;20254;-66
2023/11/02 11:10:13;;;;;;;5.13;1.10;;;;;;;;;;5020058;28;20211;-66
2023/11/02 11:12:42;;;;;;;1.63;0.90;;;;;;;;;;5018026;28;20207;-65
2023/11/02 11:15:13;;;;;;;1.00;0.90;;;;;;;;;;5016499;28;20231;-66
2023/11/02 11:17:43;;;;;;;2.00;0.77;;;;;;;;;;5017763;28;20615;-66
2023/11/02 11:20:12;;;;;;;0.60;0.60;;;;;;;;;;5029362;28;20265;-67
2023/11/02 11:22:42;;;;;;;3.20;0.80;;;;;;;;;;5017636;28;20208;-68
2023/11/02 11:25:10;;;;;;;1.77;0.80;;;;;;;;;;5024720;28;20253;-67
2023/11/02 11:27:39;;;;;;;2.13;0.90;;;;;;;;;;5037732;28;20212;-68
2023/11/02 11:30:35;;;;;;;0.80;0.80;;;;;;;;;;5033259;28;20208;-66
2023/11/02 11:33:04;;;;;;;1.50;0.53;;;;;;;;;;5022218;28;20215;-66
2023/11/02 11:35:33;;;;;;;1.13;1.10;;;;;;;;;;5022775;28;20706;-66
2023/11/02 11:38:02;;;;;;;1.90;1.07;;;;;;;;;;5032366;28;20199;-65
2023/11/02 11:40:36;;;;;;;1.73;0.80;;;;;;;;;;5022230;28;20208;-65
2023/11/02 11:43:12;;;;;;;1.53;1.00;;;;;;;;;;5036803;28;20207;-65
2023/11/02 11:45:50;;;;;;;1.37;0.90;;;;;;;;;;5037245;28;20233;-65
2023/11/02 11:48:38;;;;;;;2.97;1.00;;;;;;;;;;5037307;28;20261;-65
2023/11/02 11:51:26;;;;;;;3.87;1.57;;;;;;;;;;5024830;28;20291;-66
2023/11/02 11:54:07;;;;;;;2.70;1.03;;;;;;;;;;5026026;28;20255;-65
2023/11/02 11:56:35;;;;;;;1.20;0.90;;;;;;;;;;5030077;28;20207;-65
2023/11/02 11:59:03;;;;;;;0.97;0.90;;;;;;;;;;5029020;28;20239;-65
2023/11/02 12:01:33;;;;;;;0.90;0.80;;;;;;;;;;5017337;28;20243;-66
2023/11/02 12:04:02;;;;;;;0.50;0.50;;;;;;;;;;5028929;28;20227;-66
2023/11/02 12:06:38;;;;;;;0.67;0.50;;;;;;;;;;5017224;28;20247;-67
2023/11/02 12:09:09;;;;;;;0.93;0.80;;;;;;;;;;5017173;28;20680;-66
2023/11/02 12:11:38;;;;;;;0.73;0.67;;;;;;;;;;5017399;28;20219;-66
2023/11/02 12:14:13;;;;;;;2.30;0.60;;;;;;;;;;5016827;28;20714;-66
2023/11/02 12:16:43;;;;;;;0.57;0.50;;;;;;;;;;5035296;28;20265;-66
2023/11/02 12:19:11;;;;;;;0.93;0.60;;;;;;;;;;5039734;28;20265;-66
2023/11/02 12:21:40;;;;;;;0.77;0.77;;;;;;;;;;5040807;28;20213;-65
2023/11/02 12:24:10;;;;;;;0.50;0.50;;;;;;;;;;5040748;28;20235;-66
2023/11/02 12:26:39;;;;;;;1.27;0.63;;;;;;;;;;5040497;28;20223;-66
2023/11/02 12:29:08;;;;;;;0.70;0.70;;;;;;;;;;5020823;28;20212;-66
2023/11/02 12:31:39;;;;;;;0.67;0.60;;;;;;;;;;5037852;28;20215;-66
2023/11/02 12:34:11;;;;;;;0.60;0.60;;;;;;;;;;5040242;28;20227;-65
2023/11/02 12:36:40;;;;;;;0.43;0.43;;;;;;;;;;5038265;28;20191;-66
2023/11/02 12:39:13;;;;;;;0.73;0.70;;;;;;;;;;5026594;28;20207;-66
2023/11/02 12:41:43;;;;;;;0.83;0.83;;;;;;;;;;5021239;28;20572;-65
2023/11/02 12:44:12;;;;;;;0.47;0.47;;;;;;;;;;5031615;28;20228;-66
2023/11/02 12:46:41;;;;;;;1.00;0.60;;;;;;;;;;5037407;28;20227;-65
2023/11/02 12:49:12;;;;;;;0.87;0.70;;;;;;;;;;5038993;28;20210;-65
2023/11/02 12:51:41;;;;;;;0.47;0.47;;;;;;;;;;5040385;28;20651;-66
2023/11/02 12:54:14;;;;;;;0.70;0.70;;;;;;;;;;5038007;28;20695;-65
2023/11/02 12:56:44;;;;;;;1.57;0.80;;;;;;;;;;5040185;28;20204;-66
2023/11/02 12:59:12;;;;;;;2.47;1.03;;;;;;;;;;5023746;28;20243;-66
2023/11/02 13:01:48;;;;;;;2.50;0.73;;;;;;;;;;5020631;28;20212;-66
2023/11/02 13:04:18;;;;;;;0.97;0.60;;;;;;;;;;5003119;28;20323;-65
2023/11/02 13:06:46;;;;;;;1.17;0.60;;;;;;;;;;5011100;28;20224;-66
2023/11/02 13:09:16;;;;;;;0.47;0.47;;;;;;;;;;5001930;28;20209;-65
2023/11/02 13:11:48;;;;;;;0.70;0.70;;;;;;;;;;5000725;28;20291;-65
2023/11/02 13:14:23;;;;;;;0.67;0.67;;;;;;;;;;5007109;28;20228;-66
2023/11/02 13:16:53;;;;;;;0.87;0.60;;;;;;;;;;5020238;28;20204;-64
2023/11/02 13:19:23;;;;;;;2.33;0.90;;;;;;;;;;5020295;28;20212;-67
2023/11/02 13:21:53;;;;;;;0.87;0.70;;;;;;;;;;5020096;28;20548;-65
2023/11/02 13:24:21;;;;;;;0.63;0.63;;;;;;;;;;5019736;28;20376;-66
2023/11/02 13:26:49;;;;;;;1.03;0.57;;;;;;;;;;5020028;28;20264;-67
2023/11/02 13:29:17;;;;;;;0.80;0.70;;;;;;;;;;5018839;28;20220;-66
2023/11/02 13:31:46;;;;;;;1.63;0.83;;;;;;;;;;5019984;28;20246;-65
2023/11/02 13:34:14;;;;;;;2.73;0.93;;;;;;;;;;5020018;28;20271;-66
2023/11/02 13:36:46;;;;;;;0.77;0.60;;;;;;;;;;5016392;28;20210;-66
2023/11/02 13:39:14;;;;;;;1.40;0.70;;;;;;;;;;5000040;28;20292;-65
2023/11/02 13:41:42;;;;;;;2.83;0.70;;;;;;;;;;5013850;28;20295;-65
2023/11/02 13:44:10;;;;;;;2.70;0.70;;;;;;;;;;5004236;28;20590;-66
2023/11/02 13:46:39;;;;;;;0.90;0.90;;;;;;;;;;5000068;28;20331;-66
2023/11/02 13:49:07;;;;;;;1.90;0.80;;;;;;;;;;5008073;28;20232;-66
2023/11/02 13:51:36;;;;;;;0.90;0.80;;;;;;;;;;5018798;28;20236;-67
2023/11/02 13:54:06;;;;;;;1.27;0.70;;;;;;;;;;5018399;28;20609;-65
2023/11/02 13:56:34;;;;;;;1.90;0.50;;;;;;;;;;5004996;28;20200;-66
2023/11/02 13:59:05;;;;;;;1.20;0.60;;;;;;;;;;5019324;28;20255;-66
2023/11/02 14:01:34;;;;;;;0.60;0.60;;;;;;;;;;5011799;28;20288;-65
2023/11/02 14:04:02;;;;;;;0.50;0.50;;;;;;;;;;5014776;28;20644;-65
2023/11/02 14:06:32;;;;;;;0.50;0.50;;;;;;;;;;5019099;28;20268;-65
2023/11/02 14:09:02;;;;;;;1.10;0.57;;;;;;;;;;5009912;28;20625;-65
2023/11/02 14:11:33;;;;;;;0.60;0.50;;;;;;;;;;5009436;28;20205;-65
2023/11/02 14:14:03;;;;;;;0.53;0.50;;;;;;;;;;5008535;28;20602;-65
2023/11/02 14:16:32;;;;;;;0.50;0.50;;;;;;;;;;5007895;28;20201;-66
2023/11/02 14:19:01;;;;;;;0.70;0.70;;;;;;;;;;5007481;28;20229;-65
2023/11/02 14:21:30;;;;;;;2.50;0.60;;;;;;;;;;5008275;28;20297;-64
2023/11/02 14:23:59;;;;;;;0.50;0.50;;;;;;;;;;5008661;28;20274;-65
2023/11/02 14:26:27;;;;;;;0.53;0.53;;;;;;;;;;5009838;28;20212;-64
2023/11/02 14:28:57;;;;;;;0.40;0.40;;;;;;;;;;5008543;28;20686;-64
2023/11/02 14:31:26;;;;;;;0.77;0.60;;;;;;;;;;5013979;28;20201;-64
2023/11/02 14:33:54;;;;;;;1.00;0.60;;;;;;;;;;5009992;28;20226;-65
2023/11/02 14:36:24;;;;;;;2.03;0.73;;;;;;;;;;5008186;28;20239;-65
2023/11/02 14:38:52;;;;;;;1.20;0.77;;;;;;;;;;5009517;28;20223;-64
2023/11/02 14:41:21;;;;;;;1.20;0.70;;;;;;;;;;5008164;28;20268;-65
2023/11/02 14:43:49;;;;;;;1.10;0.87;;;;;;;;;;5007080;28;20220;-64
2023/11/02 14:46:18;;;;;;;1.97;0.90;;;;;;;;;;5006917;28;20201;-64
2023/11/02 14:48:47;;;;;;;0.97;0.60;;;;;;;;;;5010801;28;20232;-64
2023/11/02 14:51:15;;;;;;;0.87;0.70;;;;;;;;;;5010139;28;20272;-64
2023/11/02 14:53:43;;;;;;;0.97;0.87;;;;;;;;;;4998522;28;20308;-65
2023/11/02 14:56:11;;;;;;;2.70;0.67;;;;;;;;;;5001913;28;20201;-64
2023/11/02 14:58:39;;;;;;;1.60;0.90;;;;;;;;;;5018100;28;20700;-64
2023/11/02 15:01:07;;;;;;;4.07;0.90;;;;;;;;;;5008062;28;20219;-64
2023/11/02 15:03:37;;;;;;;1.73;0.80;;;;;;;;;;4999532;28;20220;-65
2023/11/02 15:06:05;;;;;;;0.67;0.67;;;;;;;;;;5005837;28;20208;-65
2023/11/02 15:08:33;;;;;;;0.83;0.60;;;;;;;;;;5007083;28;20220;-63
2023/11/02 15:11:01;;;;;;;2.77;1.23;;;;;;;;;;4998345;28;20574;-64